Gooik, Belgium
Current Conditions -  °F | °C
As of 5:38 PM on Sunday 21 Dec 2014 (Local Time) from EBCV Reporting Station
Broken Clouds Broken Clouds  
Wind Chill:   Ceiling: 1400
Heat Index:   Visibility: 4mi
Dew Point:   Wind: 18mph
Humidity: 93%   Direction: 230°SW
Pressure: 30.33"   Gusts: NA
Location:  50.79°N, 4.11°E
Report Text: EBCV 211638Z AUTO 23016KT 7000 FEW009/// BKN014/// BKN017/// 07/06 Q1027 GRN
Loading
Personal Weather Stations






























Interactive Weather Map New forecast layout! Learn more

10-Day Weather Forecast

Advertisements
Track Severe Weather on mobile